sensor_id;sensor_type;location;lat;lon;timestamp;pressure;altitude;pressure_sealevel;temperature;humidity
59110;BME280;44895;47.438;18.978;2024-01-11T00:01:01;101501.06;;;-4.91;100.00
59110;BME280;44895;47.438;18.978;2024-01-11T00:04:05;101491.66;;;-4.85;100.00
59110;BME280;44895;47.438;18.978;2024-01-11T00:07:09;101508.72;;;-4.53;100.00
59110;BME280;44895;47.438;18.978;2024-01-11T00:10:13;101504.34;;;-4.70;100.00
59110;BME280;44895;47.438;18.978;2024-01-11T00:13:16;101500.06;;;-4.98;100.00
59110;BME280;44895;47.438;18.978;2024-01-11T00:16:20;101498.38;;;-4.99;100.00
59110;BME280;44895;47.438;18.978;2024-01-11T00:19:24;101499.38;;;-5.00;100.00
59110;BME280;44895;47.438;18.978;2024-01-11T00:22:27;101494.41;;;-5.21;100.00
59110;BME280;44895;47.438;18.978;2024-01-11T00:25:31;101496.34;;;-5.05;100.00
59110;BME280;44895;47.438;18.978;2024-01-11T00:28:35;101491.19;;;-5.33;100.00
59110;BME280;44895;47.438;18.978;2024-01-11T00:31:39;101484.91;;;-5.05;100.00
59110;BME280;44895;47.438;18.978;2024-01-11T00:34:43;101483.94;;;-5.04;100.00
59110;BME280;44895;47.438;18.978;2024-01-11T00:37:47;101491.31;;;-5.16;100.00
59110;BME280;44895;47.438;18.978;2024-01-11T00:40:50;101482.56;;;-5.35;100.00
59110;BME280;44895;47.438;18.978;2024-01-11T00:43:54;101475.81;;;-5.29;100.00
59110;BME280;44895;47.438;18.978;2024-01-11T00:46:58;101475.97;;;-5.31;100.00
59110;BME280;44895;47.438;18.978;2024-01-11T00:50:01;101457.66;;;-5.24;100.00
59110;BME280;44895;47.438;18.978;2024-01-11T00:53:05;101469.25;;;-5.17;100.00
59110;BME280;44895;47.438;18.978;2024-01-11T00:56:16;101468.66;;;-5.37;100.00
59110;BME280;44895;47.438;18.978;2024-01-11T00:59:20;101469.34;;;-5.09;100.00
59110;BME280;44895;47.438;18.978;2024-01-11T01:02:24;101466.00;;;-5.37;100.00
59110;BME280;44895;47.438;18.978;2024-01-11T01:05:28;101465.13;;;-5.46;100.00
59110;BME280;44895;47.438;18.978;2024-01-11T01:08:32;101463.19;;;-5.35;100.00
59110;BME280;44895;47.438;18.978;2024-01-11T01:11:35;101451.72;;;-5.18;100.00
59110;BME280;44895;47.438;18.978;2024-01-11T01:14:39;101439.88;;;-5.32;100.00
59110;BME280;44895;47.438;18.978;2024-01-11T01:17:42;101445.75;;;-5.20;100.00
59110;BME280;44895;47.438;18.978;2024-01-11T01:20:46;101448.91;;;-5.16;100.00
59110;BME280;44895;47.438;18.978;2024-01-11T01:23:50;101445.66;;;-5.10;100.00
59110;BME280;44895;47.438;18.978;2024-01-11T01:26:54;101436.44;;;-4.98;100.00
59110;BME280;44895;47.438;18.978;2024-01-11T01:29:58;101426.94;;;-5.09;100.00
59110;BME280;44895;47.438;18.978;2024-01-11T01:33:02;101419.41;;;-4.87;100.00
59110;BME280;44895;47.438;18.978;2024-01-11T01:36:09;101422.59;;;-4.83;100.00
59110;BME280;44895;47.438;18.978;2024-01-11T01:39:13;101423.16;;;-4.63;100.00
59110;BME280;44895;47.438;18.978;2024-01-11T01:42:17;101416.59;;;-4.85;100.00
59110;BME280;44895;47.438;18.978;2024-01-11T01:45:21;101420.41;;;-4.88;100.00
59110;BME280;44895;47.438;18.978;2024-01-11T01:48:25;101412.63;;;-4.89;100.00
59110;BME280;44895;47.438;18.978;2024-01-11T01:51:31;101410.94;;;-4.91;100.00
59110;BME280;44895;47.438;18.978;2024-01-11T01:54:36;101409.59;;;-5.29;100.00
59110;BME280;44895;47.438;18.978;2024-01-11T01:57:41;101401.59;;;-5.11;100.00
59110;BME280;44895;47.438;18.978;2024-01-11T02:00:47;101394.97;;;-5.07;100.00
59110;BME280;44895;47.438;18.978;2024-01-11T02:03:54;101389.22;;;-4.94;100.00
59110;BME280;44895;47.438;18.978;2024-01-11T02:06:57;101385.63;;;-4.85;100.00
59110;BME280;44895;47.438;18.978;2024-01-11T02:10:02;101389.13;;;-5.19;100.00
59110;BME280;44895;47.438;18.978;2024-01-11T02:13:06;101384.94;;;-4.95;100.00
59110;BME280;44895;47.438;18.978;2024-01-11T02:16:11;101380.06;;;-5.08;100.00
59110;BME280;44895;47.438;18.978;2024-01-11T02:19:19;101371.41;;;-4.84;100.00
59110;BME280;44895;47.438;18.978;2024-01-11T02:22:32;101366.25;;;-5.20;100.00
59110;BME280;44895;47.438;18.978;2024-01-11T02:25:36;101364.72;;;-4.88;100.00
59110;BME280;44895;47.438;18.978;2024-01-11T02:28:44;101366.78;;;-5.16;100.00
59110;BME280;44895;47.438;18.978;2024-01-11T02:31:48;101356.56;;;-5.03;100.00
59110;BME280;44895;47.438;18.978;2024-01-11T02:34:52;101360.94;;;-4.85;100.00
59110;BME280;44895;47.438;18.978;2024-01-11T02:37:56;101343.50;;;-4.96;100.00
59110;BME280;44895;47.438;18.978;2024-01-11T02:41:00;101351.06;;;-5.18;100.00
59110;BME280;44895;47.438;18.978;2024-01-11T02:44:04;101350.94;;;-5.00;100.00
59110;BME280;44895;47.438;18.978;2024-01-11T02:47:08;101344.94;;;-5.10;100.00
59110;BME280;44895;47.438;18.978;2024-01-11T02:50:12;101339.31;;;-5.15;100.00
59110;BME280;44895;47.438;18.978;2024-01-11T02:53:16;101338.34;;;-5.06;100.00
59110;BME280;44895;47.438;18.978;2024-01-11T02:56:19;101338.16;;;-5.13;100.00
59110;BME280;44895;47.438;18.978;2024-01-11T02:59:23;101331.88;;;-5.12;100.00
59110;BME280;44895;47.438;18.978;2024-01-11T03:02:27;101314.31;;;-5.47;100.00
59110;BME280;44895;47.438;18.978;2024-01-11T03:05:31;101326.16;;;-5.25;100.00
59110;BME280;44895;47.438;18.978;2024-01-11T03:08:35;101323.34;;;-5.24;100.00
59110;BME280;44895;47.438;18.978;2024-01-11T03:11:39;101314.97;;;-5.11;100.00
59110;BME280;44895;47.438;18.978;2024-01-11T03:14:43;101309.00;;;-5.47;100.00
59110;BME280;44895;47.438;18.978;2024-01-11T03:17:47;101310.13;;;-5.24;100.00
59110;BME280;44895;47.438;18.978;2024-01-11T03:20:50;101308.06;;;-4.95;100.00
59110;BME280;44895;47.438;18.978;2024-01-11T03:23:54;101302.41;;;-5.00;100.00
59110;BME280;44895;47.438;18.978;2024-01-11T03:26:58;101297.84;;;-5.33;100.00
59110;BME280;44895;47.438;18.978;2024-01-11T03:30:01;101292.94;;;-5.03;100.00
59110;BME280;44895;47.438;18.978;2024-01-11T03:33:05;101297.63;;;-4.97;100.00
59110;BME280;44895;47.438;18.978;2024-01-11T03:36:09;101296.66;;;-4.87;100.00
59110;BME280;44895;47.438;18.978;2024-01-11T03:39:13;101287.69;;;-4.86;100.00
59110;BME280;44895;47.438;18.978;2024-01-11T03:42:17;101277.59;;;-4.83;100.00
59110;BME280;44895;47.438;18.978;2024-01-11T03:45:21;101270.69;;;-4.67;100.00
59110;BME280;44895;47.438;18.978;2024-01-11T03:48:24;101251.94;;;-4.82;100.00
59110;BME280;44895;47.438;18.978;2024-01-11T03:51:28;101270.38;;;-4.56;100.00
59110;BME280;44895;47.438;18.978;2024-01-11T03:54:32;101266.22;;;-4.50;100.00
59110;BME280;44895;47.438;18.978;2024-01-11T03:57:35;101241.84;;;-4.37;100.00
59110;BME280;44895;47.438;18.978;2024-01-11T04:00:39;101260.91;;;-4.17;100.00
59110;BME280;44895;47.438;18.978;2024-01-11T04:03:43;101258.72;;;-4.05;100.00
59110;BME280;44895;47.438;18.978;2024-01-11T04:06:47;101260.03;;;-3.93;100.00
59110;BME280;44895;47.438;18.978;2024-01-11T04:09:51;101251.84;;;-3.75;100.00
59110;BME280;44895;47.438;18.978;2024-01-11T04:12:55;101258.53;;;-3.96;100.00
59110;BME280;44895;47.438;18.978;2024-01-11T04:15:59;101261.53;;;-4.07;100.00
59110;BME280;44895;47.438;18.978;2024-01-11T04:19:07;101261.88;;;-4.02;100.00
59110;BME280;44895;47.438;18.978;2024-01-11T04:22:10;101262.56;;;-4.16;100.00
59110;BME280;44895;47.438;18.978;2024-01-11T04:25:14;101266.19;;;-4.01;100.00
59110;BME280;44895;47.438;18.978;2024-01-11T04:28:18;101259.22;;;-3.94;100.00
59110;BME280;44895;47.438;18.978;2024-01-11T04:31:22;101260.88;;;-3.92;100.00
59110;BME280;44895;47.438;18.978;2024-01-11T04:34:26;101258.81;;;-3.74;100.00
59110;BME280;44895;47.438;18.978;2024-01-11T04:37:30;101267.78;;;-3.75;100.00
59110;BME280;44895;47.438;18.978;2024-01-11T04:40:33;101255.75;;;-4.11;100.00
59110;BME280;44895;47.438;18.978;2024-01-11T04:43:42;101275.06;;;-3.69;100.00
59110;BME280;44895;47.438;18.978;2024-01-11T04:46:46;101261.84;;;-3.77;100.00
59110;BME280;44895;47.438;18.978;2024-01-11T04:49:50;101258.91;;;-3.99;100.00
59110;BME280;44895;47.438;18.978;2024-01-11T04:52:54;101256.25;;;-4.07;100.00
59110;BME280;44895;47.438;18.978;2024-01-11T04:55:58;101256.25;;;-4.23;100.00
59110;BME280;44895;47.438;18.978;2024-01-11T04:59:01;101259.91;;;-4.24;100.00
59110;BME280;44895;47.438;18.978;2024-01-11T05:02:05;101263.91;;;-4.20;100.00
59110;BME280;44895;47.438;18.978;2024-01-11T05:05:09;101262.41;;;-4.39;100.00
59110;BME280;44895;47.438;18.978;2024-01-11T05:08:13;101257.44;;;-4.51;100.00
59110;BME280;44895;47.438;18.978;2024-01-11T05:11:23;101258.25;;;-4.09;100.00
59110;BME280;44895;47.438;18.978;2024-01-11T05:14:30;101255.44;;;-4.24;100.00
59110;BME280;44895;47.438;18.978;2024-01-11T05:17:33;101253.44;;;-4.38;100.00
59110;BME280;44895;47.438;18.978;2024-01-11T05:20:37;101260.41;;;-4.37;100.00
59110;BME280;44895;47.438;18.978;2024-01-11T05:23:41;101254.44;;;-4.23;100.00
59110;BME280;44895;47.438;18.978;2024-01-11T05:26:46;101252.97;;;-4.26;100.00
59110;BME280;44895;47.438;18.978;2024-01-11T05:29:50;101241.84;;;-4.29;100.00
59110;BME280;44895;47.438;18.978;2024-01-11T05:32:54;101245.41;;;-3.81;100.00
59110;BME280;44895;47.438;18.978;2024-01-11T05:35:58;101248.03;;;-3.72;100.00
59110;BME280;44895;47.438;18.978;2024-01-11T05:39:02;101252.88;;;-3.84;100.00
59110;BME280;44895;47.438;18.978;2024-01-11T05:42:06;101255.03;;;-3.88;100.00
59110;BME280;44895;47.438;18.978;2024-01-11T05:45:10;101262.19;;;-3.97;100.00
59110;BME280;44895;47.438;18.978;2024-01-11T05:48:13;101254.53;;;-3.91;100.00
59110;BME280;44895;47.438;18.978;2024-01-11T05:51:17;101252.25;;;-3.95;100.00
59110;BME280;44895;47.438;18.978;2024-01-11T05:54:21;101251.91;;;-4.00;100.00
59110;BME280;44895;47.438;18.978;2024-01-11T05:57:24;101248.88;;;-3.72;100.00
59110;BME280;44895;47.438;18.978;2024-01-11T06:00:28;101253.81;;;-3.69;100.00
59110;BME280;44895;47.438;18.978;2024-01-11T06:03:32;101263.34;;;-3.99;100.00
59110;BME280;44895;47.438;18.978;2024-01-11T06:06:37;101261.25;;;-4.20;100.00
59110;BME280;44895;47.438;18.978;2024-01-11T06:09:41;101253.94;;;-4.35;100.00
59110;BME280;44895;47.438;18.978;2024-01-11T06:12:45;101258.25;;;-4.34;100.00
59110;BME280;44895;47.438;18.978;2024-01-11T06:15:49;101257.25;;;-4.41;100.00
59110;BME280;44895;47.438;18.978;2024-01-11T06:18:54;101253.44;;;-4.55;100.00
59110;BME280;44895;47.438;18.978;2024-01-11T06:21:58;101260.91;;;-4.67;100.00
59110;BME280;44895;47.438;18.978;2024-01-11T06:25:01;101244.66;;;-4.72;100.00
59110;BME280;44895;47.438;18.978;2024-01-11T06:28:05;101241.34;;;-4.57;100.00
59110;BME280;44895;47.438;18.978;2024-01-11T06:31:10;101248.31;;;-4.32;100.00
59110;BME280;44895;47.438;18.978;2024-01-11T06:34:14;101242.66;;;-4.29;100.00
59110;BME280;44895;47.438;18.978;2024-01-11T06:37:17;101240.47;;;-4.17;100.00
59110;BME280;44895;47.438;18.978;2024-01-11T06:40:21;101243.50;;;-4.12;100.00
59110;BME280;44895;47.438;18.978;2024-01-11T06:43:25;101243.59;;;-3.88;100.00
59110;BME280;44895;47.438;18.978;2024-01-11T06:46:29;101232.81;;;-3.87;100.00
59110;BME280;44895;47.438;18.978;2024-01-11T06:49:33;101232.44;;;-3.75;100.00
59110;BME280;44895;47.438;18.978;2024-01-11T06:52:37;101239.53;;;-3.59;100.00
59110;BME280;44895;47.438;18.978;2024-01-11T06:55:40;101230.22;;;-3.55;100.00
59110;BME280;44895;47.438;18.978;2024-01-11T06:58:46;101231.63;;;-3.36;100.00
59110;BME280;44895;47.438;18.978;2024-01-11T07:01:50;101232.41;;;-3.28;100.00
59110;BME280;44895;47.438;18.978;2024-01-11T07:04:53;101233.69;;;-3.55;100.00
59110;BME280;44895;47.438;18.978;2024-01-11T07:07:57;101233.72;;;-3.23;100.00
59110;BME280;44895;47.438;18.978;2024-01-11T07:11:02;101233.50;;;-3.14;100.00
59110;BME280;44895;47.438;18.978;2024-01-11T07:14:06;101226.22;;;-2.88;100.00
59110;BME280;44895;47.438;18.978;2024-01-11T07:17:10;101229.41;;;-2.70;100.00
59110;BME280;44895;47.438;18.978;2024-01-11T07:20:14;101225.84;;;-2.85;100.00
59110;BME280;44895;47.438;18.978;2024-01-11T07:23:20;101225.56;;;-2.90;100.00
59110;BME280;44895;47.438;18.978;2024-01-11T07:26:24;101222.84;;;-2.59;100.00
59110;BME280;44895;47.438;18.978;2024-01-11T07:29:28;101222.84;;;-2.21;100.00
59110;BME280;44895;47.438;18.978;2024-01-11T07:32:32;101213.75;;;-1.52;100.00
59110;BME280;44895;47.438;18.978;2024-01-11T07:35:36;101214.69;;;-0.86;100.00
59110;BME280;44895;47.438;18.978;2024-01-11T07:38:39;101207.00;;;0.04;100.00
59110;BME280;44895;47.438;18.978;2024-01-11T07:41:43;101212.91;;;0.76;100.00
59110;BME280;44895;47.438;18.978;2024-01-11T07:44:47;101201.56;;;0.81;100.00
59110;BME280;44895;47.438;18.978;2024-01-11T07:47:50;101202.28;;;1.37;100.00
59110;BME280;44895;47.438;18.978;2024-01-11T07:50:54;101202.91;;;1.99;100.00
59110;BME280;44895;47.438;18.978;2024-01-11T07:53:58;101188.81;;;2.31;100.00
59110;BME280;44895;47.438;18.978;2024-01-11T07:57:03;101183.22;;;2.32;100.00
59110;BME280;44895;47.438;18.978;2024-01-11T08:00:07;101194.84;;;2.06;100.00
59110;BME280;44895;47.438;18.978;2024-01-11T08:03:16;101187.31;;;2.41;100.00
59110;BME280;44895;47.438;18.978;2024-01-11T08:06:20;101185.91;;;2.25;95.35
59110;BME280;44895;47.438;18.978;2024-01-11T08:09:24;101184.56;;;3.51;89.00
59110;BME280;44895;47.438;18.978;2024-01-11T08:12:27;101182.50;;;3.53;79.17
59110;BME280;44895;47.438;18.978;2024-01-11T08:15:32;101169.63;;;4.73;78.25
59110;BME280;44895;47.438;18.978;2024-01-11T08:18:35;101143.16;;;5.00;70.33
59110;BME280;44895;47.438;18.978;2024-01-11T08:21:42;101150.09;;;6.56;65.00
59110;BME280;44895;47.438;18.978;2024-01-11T08:24:46;101150.16;;;6.32;61.26
59110;BME280;44895;47.438;18.978;2024-01-11T08:27:50;101147.78;;;6.47;59.01
59110;BME280;44895;47.438;18.978;2024-01-11T08:30:54;101143.03;;;6.66;58.34
59110;BME280;44895;47.438;18.978;2024-01-11T08:33:59;101137.38;;;6.68;57.20
59110;BME280;44895;47.438;18.978;2024-01-11T08:37:03;101143.72;;;6.91;55.77
59110;BME280;44895;47.438;18.978;2024-01-11T08:40:07;101143.84;;;6.67;55.68
59110;BME280;44895;47.438;18.978;2024-01-11T08:43:12;101144.75;;;6.44;56.41
59110;BME280;44895;47.438;18.978;2024-01-11T08:46:26;101141.94;;;6.67;55.98
59110;BME280;44895;47.438;18.978;2024-01-11T08:49:30;101138.28;;;6.74;55.33
59110;BME280;44895;47.438;18.978;2024-01-11T08:52:33;101135.91;;;6.77;53.63
59110;BME280;44895;47.438;18.978;2024-01-11T08:55:37;101138.47;;;8.08;54.13
59110;BME280;44895;47.438;18.978;2024-01-11T08:58:41;101140.38;;;7.51;52.17
59110;BME280;44895;47.438;18.978;2024-01-11T09:01:44;101121.28;;;8.96;51.34
59110;BME280;44895;47.438;18.978;2024-01-11T09:04:48;101131.50;;;9.17;49.10
59110;BME280;44895;47.438;18.978;2024-01-11T09:07:52;101129.28;;;9.08;49.41
59110;BME280;44895;47.438;18.978;2024-01-11T09:10:56;101125.13;;;9.33;47.81
59110;BME280;44895;47.438;18.978;2024-01-11T09:14:03;101125.09;;;9.28;47.70
59110;BME280;44895;47.438;18.978;2024-01-11T09:17:06;101113.47;;;9.75;47.87
59110;BME280;44895;47.438;18.978;2024-01-11T09:20:10;101115.06;;;9.71;46.87
59110;BME280;44895;47.438;18.978;2024-01-11T09:23:17;101117.81;;;9.01;48.32
59110;BME280;44895;47.438;18.978;2024-01-11T09:26:22;101114.88;;;8.04;48.09
59110;BME280;44895;47.438;18.978;2024-01-11T09:29:27;101110.09;;;8.11;50.19
59110;BME280;44895;47.438;18.978;2024-01-11T09:32:31;101118.09;;;8.72;48.62
59110;BME280;44895;47.438;18.978;2024-01-11T09:35:34;101104.09;;;8.09;48.84
59110;BME280;44895;47.438;18.978;2024-01-11T09:38:38;101099.19;;;7.44;50.21
59110;BME280;44895;47.438;18.978;2024-01-11T09:41:49;101078.22;;;9.75;47.49
59110;BME280;44895;47.438;18.978;2024-01-11T09:44:56;101074.44;;;8.96;46.63
59110;BME280;44895;47.438;18.978;2024-01-11T09:51:37;101042.16;;;7.46;48.03
59110;BME280;44895;47.438;18.978;2024-01-11T09:54:42;101042.34;;;6.08;51.23
59110;BME280;44895;47.438;18.978;2024-01-11T09:57:52;101051.22;;;6.83;51.25
59110;BME280;44895;47.438;18.978;2024-01-11T10:00:59;101027.00;;;9.36;47.15
59110;BME280;44895;47.438;18.978;2024-01-11T10:04:03;101027.25;;;9.93;45.09
59110;BME280;44895;47.438;18.978;2024-01-11T10:07:09;101015.16;;;11.24;43.51
59110;BME280;44895;47.438;18.978;2024-01-11T10:23:12;100990.16;;;15.45;35.61
59110;BME280;44895;47.438;18.978;2024-01-11T10:26:17;101002.25;;;11.61;39.40
59110;BME280;44895;47.438;18.978;2024-01-11T10:29:21;100989.31;;;13.31;39.38
59110;BME280;44895;47.438;18.978;2024-01-11T10:32:28;100987.72;;;13.97;37.34
59110;BME280;44895;47.438;18.978;2024-01-11T10:48:37;100975.72;;;7.94;45.50
59110;BME280;44895;47.438;18.978;2024-01-11T10:51:43;100979.41;;;6.65;49.33
59110;BME280;44895;47.438;18.978;2024-01-11T10:54:49;100984.22;;;5.88;51.98
59110;BME280;44895;47.438;18.978;2024-01-11T11:00:55;100976.47;;;5.51;54.36
59110;BME280;44895;47.438;18.978;2024-01-11T11:04:02;100970.66;;;5.43;56.06
59110;BME280;44895;47.438;18.978;2024-01-11T11:07:07;100958.72;;;5.67;55.86
59110;BME280;44895;47.438;18.978;2024-01-11T11:10:12;100941.63;;;5.09;57.86
59110;BME280;44895;47.438;18.978;2024-01-11T11:13:17;100941.06;;;4.83;59.00
59110;BME280;44895;47.438;18.978;2024-01-11T11:16:22;100941.41;;;4.99;60.41
59110;BME280;44895;47.438;18.978;2024-01-11T11:19:26;100934.38;;;4.50;60.19
59110;BME280;44895;47.438;18.978;2024-01-11T11:22:34;100917.88;;;4.47;61.81
59110;BME280;44895;47.438;18.978;2024-01-11T11:25:40;100920.81;;;4.45;62.11
59110;BME280;44895;47.438;18.978;2024-01-11T11:28:45;100922.78;;;4.26;62.95
59110;BME280;44895;47.438;18.978;2024-01-11T11:31:51;100938.59;;;4.04;63.60
59110;BME280;44895;47.438;18.978;2024-01-11T11:34:58;100925.56;;;4.19;64.73
59110;BME280;44895;47.438;18.978;2024-01-11T11:38:02;100918.06;;;4.21;64.21
59110;BME280;44895;47.438;18.978;2024-01-11T11:41:06;100914.22;;;4.17;63.92
59110;BME280;44895;47.438;18.978;2024-01-11T11:44:12;100906.88;;;4.48;64.20
59110;BME280;44895;47.438;18.978;2024-01-11T11:47:21;100899.38;;;4.27;63.72
59110;BME280;44895;47.438;18.978;2024-01-11T11:50:26;100883.97;;;4.34;63.46
59110;BME280;44895;47.438;18.978;2024-01-11T11:53:33;100899.13;;;4.16;63.18
59110;BME280;44895;47.438;18.978;2024-01-11T11:56:37;100894.16;;;3.89;64.72
59110;BME280;44895;47.438;18.978;2024-01-11T11:59:42;100895.81;;;4.02;66.26
59110;BME280;44895;47.438;18.978;2024-01-11T12:02:47;100875.50;;;4.06;65.74
59110;BME280;44895;47.438;18.978;2024-01-11T12:05:51;100883.16;;;3.79;65.44
59110;BME280;44895;47.438;18.978;2024-01-11T12:08:54;100874.09;;;4.04;65.54
59110;BME280;44895;47.438;18.978;2024-01-11T12:11:59;100873.06;;;4.17;65.81
59110;BME280;44895;47.438;18.978;2024-01-11T12:15:04;100865.38;;;4.32;64.92
59110;BME280;44895;47.438;18.978;2024-01-11T12:18:08;100862.53;;;4.03;64.87
59110;BME280;44895;47.438;18.978;2024-01-11T12:21:13;100854.69;;;4.02;64.82
59110;BME280;44895;47.438;18.978;2024-01-11T12:24:18;100847.91;;;4.23;65.48
59110;BME280;44895;47.438;18.978;2024-01-11T12:27:23;100845.91;;;4.06;65.16
59110;BME280;44895;47.438;18.978;2024-01-11T12:30:27;100836.72;;;4.14;65.77
59110;BME280;44895;47.438;18.978;2024-01-11T12:33:31;100837.66;;;4.55;65.44
59110;BME280;44895;47.438;18.978;2024-01-11T12:36:38;100826.88;;;4.55;64.21
59110;BME280;44895;47.438;18.978;2024-01-11T12:39:42;100829.94;;;4.23;64.06
59110;BME280;44895;47.438;18.978;2024-01-11T12:42:46;100826.09;;;4.55;63.52
59110;BME280;44895;47.438;18.978;2024-01-11T12:45:50;100829.44;;;4.74;62.81
59110;BME280;44895;47.438;18.978;2024-01-11T12:48:53;100835.41;;;4.76;62.42
59110;BME280;44895;47.438;18.978;2024-01-11T12:51:58;100829.66;;;4.84;62.21
59110;BME280;44895;47.438;18.978;2024-01-11T12:55:01;100834.94;;;4.67;61.46
59110;BME280;44895;47.438;18.978;2024-01-11T12:58:07;100827.38;;;6.82;57.94
59110;BME280;44895;47.438;18.978;2024-01-11T13:01:13;100823.59;;;7.05;53.99
59110;BME280;44895;47.438;18.978;2024-01-11T13:04:18;100813.50;;;6.00;55.72
59110;BME280;44895;47.438;18.978;2024-01-11T13:07:21;100826.09;;;5.36;57.92
59110;BME280;44895;47.438;18.978;2024-01-11T13:10:26;100819.34;;;4.93;59.32
59110;BME280;44895;47.438;18.978;2024-01-11T13:13:31;100806.09;;;5.03;59.63
59110;BME280;44895;47.438;18.978;2024-01-11T13:16:35;100807.78;;;4.81;60.81
59110;BME280;44895;47.438;18.978;2024-01-11T13:19:39;100788.78;;;4.99;60.19
59110;BME280;44895;47.438;18.978;2024-01-11T13:22:42;100792.28;;;5.00;59.98
59110;BME280;44895;47.438;18.978;2024-01-11T13:25:47;100790.28;;;5.36;59.12
59110;BME280;44895;47.438;18.978;2024-01-11T13:28:53;100778.41;;;4.79;59.71
59110;BME280;44895;47.438;18.978;2024-01-11T13:31:56;100776.25;;;4.52;60.20
59110;BME280;44895;47.438;18.978;2024-01-11T13:35:00;100765.00;;;4.55;61.63
59110;BME280;44895;47.438;18.978;2024-01-11T13:38:05;100762.25;;;4.15;62.60
59110;BME280;44895;47.438;18.978;2024-01-11T13:41:09;100772.41;;;4.24;63.10
59110;BME280;44895;47.438;18.978;2024-01-11T13:44:13;100775.22;;;4.06;63.41
59110;BME280;44895;47.438;18.978;2024-01-11T13:47:17;100781.16;;;3.96;63.90
59110;BME280;44895;47.438;18.978;2024-01-11T13:50:22;100767.59;;;3.79;63.63
59110;BME280;44895;47.438;18.978;2024-01-11T13:53:27;100769.53;;;3.60;64.63
59110;BME280;44895;47.438;18.978;2024-01-11T13:56:31;100758.25;;;3.28;64.79
59110;BME280;44895;47.438;18.978;2024-01-11T13:59:35;100744.56;;;3.17;65.25
59110;BME280;44895;47.438;18.978;2024-01-11T14:02:40;100729.84;;;3.20;65.40
59110;BME280;44895;47.438;18.978;2024-01-11T14:05:44;100728.41;;;3.05;66.11
59110;BME280;44895;47.438;18.978;2024-01-11T14:08:47;100724.25;;;2.91;67.21
59110;BME280;44895;47.438;18.978;2024-01-11T14:11:51;100714.75;;;2.76;66.96
59110;BME280;44895;47.438;18.978;2024-01-11T14:14:55;100720.81;;;2.84;67.77
59110;BME280;44895;47.438;18.978;2024-01-11T14:17:59;100697.38;;;2.79;69.59
59110;BME280;44895;47.438;18.978;2024-01-11T14:21:02;100696.88;;;2.70;70.03
59110;BME280;44895;47.438;18.978;2024-01-11T14:24:06;100689.69;;;2.83;71.81
59110;BME280;44895;47.438;18.978;2024-01-11T14:27:10;100663.84;;;2.70;72.97
59110;BME280;44895;47.438;18.978;2024-01-11T14:30:14;100667.78;;;2.37;77.66
59110;BME280;44895;47.438;18.978;2024-01-11T14:33:18;100657.41;;;2.59;77.70
59110;BME280;44895;47.438;18.978;2024-01-11T14:36:23;100649.97;;;2.61;75.30
59110;BME280;44895;47.438;18.978;2024-01-11T14:39:27;100661.97;;;2.40;74.85
59110;BME280;44895;47.438;18.978;2024-01-11T14:42:31;100653.28;;;2.26;78.31
59110;BME280;44895;47.438;18.978;2024-01-11T14:45:36;100667.47;;;2.26;78.80
59110;BME280;44895;47.438;18.978;2024-01-11T14:48:40;100673.16;;;2.18;79.17
59110;BME280;44895;47.438;18.978;2024-01-11T14:51:44;100686.16;;;1.96;79.73
59110;BME280;44895;47.438;18.978;2024-01-11T14:54:48;100704.72;;;2.16;79.59
59110;BME280;44895;47.438;18.978;2024-01-11T14:57:52;100698.50;;;1.97;80.85
59110;BME280;44895;47.438;18.978;2024-01-11T15:00:56;100692.63;;;1.88;82.19
59110;BME280;44895;47.438;18.978;2024-01-11T15:03:59;100672.59;;;1.72;81.59
59110;BME280;44895;47.438;18.978;2024-01-11T15:07:03;100678.09;;;1.77;81.88
59110;BME280;44895;47.438;18.978;2024-01-11T15:10:07;100668.16;;;1.59;81.99
59110;BME280;44895;47.438;18.978;2024-01-11T15:13:10;100671.34;;;1.50;84.27
59110;BME280;44895;47.438;18.978;2024-01-11T15:16:14;100678.88;;;1.59;85.99
59110;BME280;44895;47.438;18.978;2024-01-11T15:19:18;100650.91;;;1.55;87.36
59110;BME280;44895;47.438;18.978;2024-01-11T15:22:22;100646.72;;;1.59;89.06
59110;BME280;44895;47.438;18.978;2024-01-11T15:25:26;100650.97;;;1.23;91.86
59110;BME280;44895;47.438;18.978;2024-01-11T15:28:29;100660.84;;;1.48;92.56
59110;BME280;44895;47.438;18.978;2024-01-11T15:31:33;100655.78;;;1.40;95.02
59110;BME280;44895;47.438;18.978;2024-01-11T15:34:39;100659.03;;;1.42;96.49
59110;BME280;44895;47.438;18.978;2024-01-11T15:37:43;100679.41;;;1.43;98.73
59110;BME280;44895;47.438;18.978;2024-01-11T15:40:47;100680.78;;;1.27;100.00
59110;BME280;44895;47.438;18.978;2024-01-11T15:43:50;100676.53;;;1.44;100.00
59110;BME280;44895;47.438;18.978;2024-01-11T15:46:55;100673.34;;;1.29;100.00
59110;BME280;44895;47.438;18.978;2024-01-11T15:49:59;100665.38;;;1.22;100.00
59110;BME280;44895;47.438;18.978;2024-01-11T15:53:03;100659.91;;;1.10;100.00
59110;BME280;44895;47.438;18.978;2024-01-11T15:56:07;100659.94;;;1.04;100.00
59110;BME280;44895;47.438;18.978;2024-01-11T15:59:10;100663.91;;;0.94;100.00
59110;BME280;44895;47.438;18.978;2024-01-11T16:02:14;100662.34;;;1.12;100.00
59110;BME280;44895;47.438;18.978;2024-01-11T16:05:19;100666.06;;;0.79;100.00
59110;BME280;44895;47.438;18.978;2024-01-11T16:08:23;100654.16;;;1.07;100.00
59110;BME280;44895;47.438;18.978;2024-01-11T16:11:27;100658.03;;;0.79;100.00
59110;BME280;44895;47.438;18.978;2024-01-11T16:14:33;100645.41;;;0.54;100.00
59110;BME280;44895;47.438;18.978;2024-01-11T16:17:36;100630.22;;;0.48;100.00
59110;BME280;44895;47.438;18.978;2024-01-11T16:20:40;100638.44;;;0.46;100.00
59110;BME280;44895;47.438;18.978;2024-01-11T16:23:44;100641.03;;;0.67;100.00